sensor_id;sensor_type;location;lat;lon;timestamp;P1;durP1;ratioP1;P2;durP2;ratioP2
53062;SDS011;40529;52.172;10.548;2023-04-10T00:02:09;47.75;;;25.83;;
53062;SDS011;40529;52.172;10.548;2023-04-10T00:04:35;43.67;;;25.23;;
53062;SDS011;40529;52.172;10.548;2023-04-10T00:07:01;47.75;;;26.42;;
53062;SDS011;40529;52.172;10.548;2023-04-10T00:09:27;46.28;;;26.10;;
53062;SDS011;40529;52.172;10.548;2023-04-10T00:11:53;52.97;;;27.30;;
53062;SDS011;40529;52.172;10.548;2023-04-10T00:14:20;42.83;;;24.55;;
53062;SDS011;40529;52.172;10.548;2023-04-10T00:16:48;47.67;;;24.80;;
53062;SDS011;40529;52.172;10.548;2023-04-10T00:19:14;47.70;;;26.60;;
53062;SDS011;40529;52.172;10.548;2023-04-10T00:21:40;44.88;;;24.65;;
53062;SDS011;40529;52.172;10.548;2023-04-10T00:24:06;44.60;;;24.08;;
53062;SDS011;40529;52.172;10.548;2023-04-10T00:26:32;45.78;;;24.45;;
53062;SDS011;40529;52.172;10.548;2023-04-10T00:28:59;43.05;;;24.70;;
53062;SDS011;40529;52.172;10.548;2023-04-10T00:31:25;47.65;;;25.13;;
53062;SDS011;40529;52.172;10.548;2023-04-10T00:33:51;43.05;;;24.52;;
53062;SDS011;40529;52.172;10.548;2023-04-10T00:36:17;45.58;;;25.25;;
53062;SDS011;40529;52.172;10.548;2023-04-10T00:38:43;46.40;;;26.08;;
53062;SDS011;40529;52.172;10.548;2023-04-10T00:41:09;45.13;;;25.25;;
53062;SDS011;40529;52.172;10.548;2023-04-10T00:43:36;46.65;;;24.70;;
53062;SDS011;40529;52.172;10.548;2023-04-10T00:46:03;45.53;;;23.55;;
53062;SDS011;40529;52.172;10.548;2023-04-10T00:48:29;42.80;;;24.60;;
53062;SDS011;40529;52.172;10.548;2023-04-10T00:50:55;39.35;;;22.70;;
53062;SDS011;40529;52.172;10.548;2023-04-10T00:53:22;44.33;;;24.67;;
53062;SDS011;40529;52.172;10.548;2023-04-10T00:55:48;43.97;;;23.52;;
53062;SDS011;40529;52.172;10.548;2023-04-10T00:58:14;46.80;;;24.63;;
53062;SDS011;40529;52.172;10.548;2023-04-10T01:00:40;45.22;;;24.73;;
53062;SDS011;40529;52.172;10.548;2023-04-10T01:03:07;41.10;;;22.95;;
53062;SDS011;40529;52.172;10.548;2023-04-10T01:05:34;44.03;;;23.98;;
53062;SDS011;40529;52.172;10.548;2023-04-10T01:10:47;42.97;;;23.63;;
53062;SDS011;40529;52.172;10.548;2023-04-10T01:13:31;40.60;;;23.65;;
53062;SDS011;40529;52.172;10.548;2023-04-10T01:18:27;41.90;;;22.58;;
53062;SDS011;40529;52.172;10.548;2023-04-10T01:20:55;46.30;;;24.13;;
53062;SDS011;40529;52.172;10.548;2023-04-10T01:29:10;43.17;;;23.98;;
53062;SDS011;40529;52.172;10.548;2023-04-10T01:31:43;39.40;;;22.08;;
53062;SDS011;40529;52.172;10.548;2023-04-10T01:34:16;43.22;;;23.52;;
53062;SDS011;40529;52.172;10.548;2023-04-10T01:36:59;47.88;;;24.35;;
53062;SDS011;40529;52.172;10.548;2023-04-10T01:39:26;43.55;;;24.02;;
53062;SDS011;40529;52.172;10.548;2023-04-10T01:41:53;45.47;;;24.45;;
53062;SDS011;40529;52.172;10.548;2023-04-10T01:44:22;46.72;;;24.48;;
53062;SDS011;40529;52.172;10.548;2023-04-10T01:46:51;43.75;;;24.25;;
53062;SDS011;40529;52.172;10.548;2023-04-10T01:49:17;47.67;;;24.58;;
53062;SDS011;40529;52.172;10.548;2023-04-10T01:51:44;45.70;;;24.83;;
53062;SDS011;40529;52.172;10.548;2023-04-10T01:54:11;45.42;;;24.58;;
53062;SDS011;40529;52.172;10.548;2023-04-10T01:56:37;46.33;;;24.80;;
53062;SDS011;40529;52.172;10.548;2023-04-10T01:59:05;48.95;;;26.17;;
53062;SDS011;40529;52.172;10.548;2023-04-10T02:01:31;49.85;;;26.33;;
53062;SDS011;40529;52.172;10.548;2023-04-10T02:03:57;50.95;;;26.75;;
53062;SDS011;40529;52.172;10.548;2023-04-10T02:06:36;49.85;;;26.25;;
53062;SDS011;40529;52.172;10.548;2023-04-10T02:09:12;48.58;;;26.52;;
53062;SDS011;40529;52.172;10.548;2023-04-10T02:11:43;47.17;;;26.63;;
53062;SDS011;40529;52.172;10.548;2023-04-10T02:14:13;51.92;;;27.27;;
53062;SDS011;40529;52.172;10.548;2023-04-10T02:16:41;49.78;;;26.55;;
53062;SDS011;40529;52.172;10.548;2023-04-10T02:19:09;48.58;;;25.92;;
53062;SDS011;40529;52.172;10.548;2023-04-10T02:21:35;49.92;;;26.23;;
53062;SDS011;40529;52.172;10.548;2023-04-10T02:24:05;56.47;;;28.13;;
53062;SDS011;40529;52.172;10.548;2023-04-10T02:26:52;55.55;;;27.63;;
53062;SDS011;40529;52.172;10.548;2023-04-10T02:29:18;51.95;;;27.60;;
53062;SDS011;40529;52.172;10.548;2023-04-10T02:31:44;54.72;;;29.00;;
53062;SDS011;40529;52.172;10.548;2023-04-10T02:34:10;51.03;;;26.83;;
53062;SDS011;40529;52.172;10.548;2023-04-10T02:36:37;56.92;;;28.55;;
53062;SDS011;40529;52.172;10.548;2023-04-10T02:39:04;54.58;;;27.55;;
53062;SDS011;40529;52.172;10.548;2023-04-10T02:41:30;52.92;;;27.52;;
53062;SDS011;40529;52.172;10.548;2023-04-10T02:43:56;51.05;;;27.38;;
53062;SDS011;40529;52.172;10.548;2023-04-10T02:46:22;49.35;;;26.23;;
53062;SDS011;40529;52.172;10.548;2023-04-10T02:48:48;56.03;;;27.58;;
53062;SDS011;40529;52.172;10.548;2023-04-10T02:51:15;51.25;;;27.17;;
53062;SDS011;40529;52.172;10.548;2023-04-10T02:53:41;52.92;;;27.63;;
53062;SDS011;40529;52.172;10.548;2023-04-10T02:56:07;56.80;;;28.42;;
53062;SDS011;40529;52.172;10.548;2023-04-10T02:58:35;55.33;;;28.83;;
53062;SDS011;40529;52.172;10.548;2023-04-10T03:01:03;52.75;;;27.92;;
53062;SDS011;40529;52.172;10.548;2023-04-10T03:03:29;55.28;;;28.75;;
53062;SDS011;40529;52.172;10.548;2023-04-10T03:05:55;51.28;;;26.45;;
53062;SDS011;40529;52.172;10.548;2023-04-10T03:08:21;53.17;;;27.35;;
53062;SDS011;40529;52.172;10.548;2023-04-10T03:10:47;52.95;;;27.48;;
53062;SDS011;40529;52.172;10.548;2023-04-10T03:13:14;50.95;;;27.17;;
53062;SDS011;40529;52.172;10.548;2023-04-10T03:15:40;50.05;;;26.10;;
53062;SDS011;40529;52.172;10.548;2023-04-10T03:18:07;51.13;;;26.15;;
53062;SDS011;40529;52.172;10.548;2023-04-10T03:20:34;46.97;;;24.25;;
53062;SDS011;40529;52.172;10.548;2023-04-10T03:23:05;50.75;;;26.67;;
53062;SDS011;40529;52.172;10.548;2023-04-10T03:25:34;47.95;;;25.73;;
53062;SDS011;40529;52.172;10.548;2023-04-10T03:28:00;50.28;;;27.08;;
53062;SDS011;40529;52.172;10.548;2023-04-10T03:30:26;46.63;;;25.10;;
53062;SDS011;40529;52.172;10.548;2023-04-10T03:32:53;47.05;;;24.75;;
53062;SDS011;40529;52.172;10.548;2023-04-10T03:35:19;45.92;;;25.23;;
53062;SDS011;40529;52.172;10.548;2023-04-10T03:37:45;48.90;;;25.90;;
53062;SDS011;40529;52.172;10.548;2023-04-10T03:40:11;45.72;;;25.52;;
53062;SDS011;40529;52.172;10.548;2023-04-10T03:42:37;47.97;;;25.50;;
53062;SDS011;40529;52.172;10.548;2023-04-10T03:45:03;49.45;;;24.90;;
53062;SDS011;40529;52.172;10.548;2023-04-10T03:47:31;48.85;;;27.08;;
53062;SDS011;40529;52.172;10.548;2023-04-10T03:49:57;49.70;;;26.58;;
53062;SDS011;40529;52.172;10.548;2023-04-10T03:52:23;53.28;;;26.45;;
53062;SDS011;40529;52.172;10.548;2023-04-10T03:54:50;54.80;;;27.58;;
53062;SDS011;40529;52.172;10.548;2023-04-10T03:57:16;49.30;;;24.83;;
53062;SDS011;40529;52.172;10.548;2023-04-10T03:59:44;49.22;;;26.63;;
53062;SDS011;40529;52.172;10.548;2023-04-10T04:02:10;53.78;;;26.73;;
53062;SDS011;40529;52.172;10.548;2023-04-10T04:04:36;58.28;;;28.02;;
53062;SDS011;40529;52.172;10.548;2023-04-10T04:07:02;58.25;;;28.67;;
53062;SDS011;40529;52.172;10.548;2023-04-10T04:09:28;55.35;;;27.83;;
53062;SDS011;40529;52.172;10.548;2023-04-10T04:11:55;61.13;;;30.25;;
53062;SDS011;40529;52.172;10.548;2023-04-10T04:14:21;64.63;;;31.60;;
53062;SDS011;40529;52.172;10.548;2023-04-10T04:16:48;60.72;;;31.08;;
53062;SDS011;40529;52.172;10.548;2023-04-10T04:19:14;65.40;;;31.73;;
53062;SDS011;40529;52.172;10.548;2023-04-10T04:21:40;64.47;;;31.42;;
53062;SDS011;40529;52.172;10.548;2023-04-10T04:24:06;63.35;;;31.63;;
53062;SDS011;40529;52.172;10.548;2023-04-10T04:26:32;62.25;;;30.88;;
53062;SDS011;40529;52.172;10.548;2023-04-10T04:28:58;59.67;;;30.67;;
53062;SDS011;40529;52.172;10.548;2023-04-10T04:31:24;55.28;;;27.63;;
53062;SDS011;40529;52.172;10.548;2023-04-10T04:33:56;59.97;;;30.23;;
53062;SDS011;40529;52.172;10.548;2023-04-10T04:36:22;54.80;;;28.10;;
53062;SDS011;40529;52.172;10.548;2023-04-10T04:38:48;58.13;;;29.17;;
53062;SDS011;40529;52.172;10.548;2023-04-10T04:41:14;52.05;;;27.90;;
53062;SDS011;40529;52.172;10.548;2023-04-10T04:43:40;54.08;;;28.88;;
53062;SDS011;40529;52.172;10.548;2023-04-10T04:46:06;55.22;;;27.95;;
53062;SDS011;40529;52.172;10.548;2023-04-10T04:48:33;60.25;;;30.65;;
53062;SDS011;40529;52.172;10.548;2023-04-10T04:51:00;56.78;;;28.85;;
53062;SDS011;40529;52.172;10.548;2023-04-10T04:53:26;58.85;;;30.95;;
53062;SDS011;40529;52.172;10.548;2023-04-10T04:55:52;56.17;;;29.42;;
53062;SDS011;40529;52.172;10.548;2023-04-10T04:58:18;57.95;;;29.25;;
53062;SDS011;40529;52.172;10.548;2023-04-10T05:00:45;60.75;;;29.08;;
53062;SDS011;40529;52.172;10.548;2023-04-10T05:03:11;57.90;;;30.05;;
53062;SDS011;40529;52.172;10.548;2023-04-10T05:05:37;57.33;;;29.17;;
53062;SDS011;40529;52.172;10.548;2023-04-10T05:08:03;58.28;;;29.85;;
53062;SDS011;40529;52.172;10.548;2023-04-10T05:10:29;58.67;;;29.60;;
53062;SDS011;40529;52.172;10.548;2023-04-10T05:12:55;60.22;;;30.02;;
53062;SDS011;40529;52.172;10.548;2023-04-10T05:15:21;58.42;;;30.67;;
53062;SDS011;40529;52.172;10.548;2023-04-10T05:17:48;60.78;;;29.98;;
53062;SDS011;40529;52.172;10.548;2023-04-10T05:20:15;63.30;;;31.25;;
53062;SDS011;40529;52.172;10.548;2023-04-10T05:22:41;56.22;;;29.52;;
53062;SDS011;40529;52.172;10.548;2023-04-10T05:25:07;60.97;;;30.35;;
53062;SDS011;40529;52.172;10.548;2023-04-10T05:27:33;57.05;;;29.98;;
53062;SDS011;40529;52.172;10.548;2023-04-10T05:29:59;56.33;;;29.58;;
53062;SDS011;40529;52.172;10.548;2023-04-10T05:32:25;56.83;;;29.58;;
53062;SDS011;40529;52.172;10.548;2023-04-10T05:34:51;57.35;;;29.83;;
53062;SDS011;40529;52.172;10.548;2023-04-10T05:37:17;60.20;;;29.45;;
53062;SDS011;40529;52.172;10.548;2023-04-10T05:39:43;59.53;;;31.33;;
53062;SDS011;40529;52.172;10.548;2023-04-10T05:42:09;52.78;;;28.73;;
53062;SDS011;40529;52.172;10.548;2023-04-10T05:44:35;53.03;;;29.10;;
53062;SDS011;40529;52.172;10.548;2023-04-10T05:47:02;58.20;;;29.58;;
53062;SDS011;40529;52.172;10.548;2023-04-10T05:49:28;53.22;;;27.95;;
53062;SDS011;40529;52.172;10.548;2023-04-10T05:51:54;55.35;;;28.38;;
53062;SDS011;40529;52.172;10.548;2023-04-10T05:54:20;50.80;;;26.60;;
53062;SDS011;40529;52.172;10.548;2023-04-10T05:56:46;51.60;;;27.58;;
53062;SDS011;40529;52.172;10.548;2023-04-10T05:59:12;50.78;;;28.25;;
53062;SDS011;40529;52.172;10.548;2023-04-10T06:01:39;50.40;;;27.20;;
53062;SDS011;40529;52.172;10.548;2023-04-10T06:04:05;50.20;;;27.02;;
53062;SDS011;40529;52.172;10.548;2023-04-10T06:06:31;48.10;;;27.52;;
53062;SDS011;40529;52.172;10.548;2023-04-10T06:08:58;52.40;;;28.83;;
53062;SDS011;40529;52.172;10.548;2023-04-10T06:11:24;52.30;;;28.63;;
53062;SDS011;40529;52.172;10.548;2023-04-10T06:13:50;50.58;;;27.70;;
53062;SDS011;40529;52.172;10.548;2023-04-10T06:16:16;50.67;;;28.17;;
53062;SDS011;40529;52.172;10.548;2023-04-10T06:18:42;48.25;;;27.73;;
53062;SDS011;40529;52.172;10.548;2023-04-10T06:21:08;49.42;;;26.60;;
53062;SDS011;40529;52.172;10.548;2023-04-10T06:23:34;46.15;;;27.42;;
53062;SDS011;40529;52.172;10.548;2023-04-10T06:26:01;48.20;;;26.05;;
53062;SDS011;40529;52.172;10.548;2023-04-10T06:28:27;46.08;;;25.90;;
53062;SDS011;40529;52.172;10.548;2023-04-10T06:30:53;45.15;;;25.80;;
53062;SDS011;40529;52.172;10.548;2023-04-10T06:33:19;44.60;;;25.85;;
53062;SDS011;40529;52.172;10.548;2023-04-10T06:35:46;45.00;;;24.77;;
53062;SDS011;40529;52.172;10.548;2023-04-10T06:38:12;44.03;;;24.73;;
53062;SDS011;40529;52.172;10.548;2023-04-10T06:40:39;42.55;;;24.38;;
53062;SDS011;40529;52.172;10.548;2023-04-10T06:43:05;41.65;;;23.85;;
53062;SDS011;40529;52.172;10.548;2023-04-10T06:45:31;42.38;;;24.25;;
53062;SDS011;40529;52.172;10.548;2023-04-10T06:47:57;39.97;;;23.88;;
53062;SDS011;40529;52.172;10.548;2023-04-10T06:50:23;43.80;;;25.52;;
53062;SDS011;40529;52.172;10.548;2023-04-10T06:52:50;40.30;;;23.92;;
53062;SDS011;40529;52.172;10.548;2023-04-10T06:55:17;42.42;;;23.85;;
53062;SDS011;40529;52.172;10.548;2023-04-10T06:57:43;39.63;;;24.45;;
53062;SDS011;40529;52.172;10.548;2023-04-10T07:00:09;40.85;;;24.23;;
53062;SDS011;40529;52.172;10.548;2023-04-10T07:02:36;43.45;;;25.10;;
53062;SDS011;40529;52.172;10.548;2023-04-10T07:05:02;38.53;;;24.08;;
53062;SDS011;40529;52.172;10.548;2023-04-10T07:07:28;40.67;;;23.42;;
53062;SDS011;40529;52.172;10.548;2023-04-10T07:09:54;41.95;;;25.10;;
53062;SDS011;40529;52.172;10.548;2023-04-10T07:12:21;40.10;;;23.83;;
53062;SDS011;40529;52.172;10.548;2023-04-10T07:14:47;39.78;;;23.17;;
53062;SDS011;40529;52.172;10.548;2023-04-10T07:17:13;41.63;;;24.45;;
53062;SDS011;40529;52.172;10.548;2023-04-10T07:19:40;37.80;;;24.02;;
53062;SDS011;40529;52.172;10.548;2023-04-10T07:22:06;41.03;;;23.45;;
53062;SDS011;40529;52.172;10.548;2023-04-10T07:24:32;39.78;;;24.55;;
53062;SDS011;40529;52.172;10.548;2023-04-10T07:26:58;39.28;;;23.70;;
53062;SDS011;40529;52.172;10.548;2023-04-10T07:29:25;41.63;;;24.73;;
53062;SDS011;40529;52.172;10.548;2023-04-10T07:31:51;34.97;;;22.70;;
53062;SDS011;40529;52.172;10.548;2023-04-10T07:34:17;37.10;;;23.67;;
53062;SDS011;40529;52.172;10.548;2023-04-10T07:36:43;36.42;;;23.73;;
53062;SDS011;40529;52.172;10.548;2023-04-10T07:39:11;34.45;;;22.55;;
53062;SDS011;40529;52.172;10.548;2023-04-10T07:41:37;38.00;;;21.83;;
53062;SDS011;40529;52.172;10.548;2023-04-10T07:44:03;34.35;;;21.58;;
53062;SDS011;40529;52.172;10.548;2023-04-10T07:46:29;32.03;;;21.08;;
53062;SDS011;40529;52.172;10.548;2023-04-10T07:48:55;34.47;;;21.58;;
53062;SDS011;40529;52.172;10.548;2023-04-10T07:51:21;33.50;;;20.73;;
53062;SDS011;40529;52.172;10.548;2023-04-10T07:53:47;32.75;;;20.73;;
53062;SDS011;40529;52.172;10.548;2023-04-10T07:56:14;31.05;;;19.30;;
53062;SDS011;40529;52.172;10.548;2023-04-10T07:58:40;29.88;;;18.35;;
53062;SDS011;40529;52.172;10.548;2023-04-10T08:01:06;25.95;;;16.70;;
53062;SDS011;40529;52.172;10.548;2023-04-10T08:03:39;23.38;;;14.63;;
53062;SDS011;40529;52.172;10.548;2023-04-10T08:06:06;23.73;;;15.68;;
53062;SDS011;40529;52.172;10.548;2023-04-10T08:08:34;22.48;;;14.57;;
53062;SDS011;40529;52.172;10.548;2023-04-10T08:11:00;21.13;;;14.27;;
53062;SDS011;40529;52.172;10.548;2023-04-10T08:13:26;21.73;;;14.23;;
53062;SDS011;40529;52.172;10.548;2023-04-10T08:15:52;20.65;;;13.93;;
53062;SDS011;40529;52.172;10.548;2023-04-10T08:18:18;20.75;;;13.70;;
53062;SDS011;40529;52.172;10.548;2023-04-10T08:20:44;20.77;;;14.57;;
53062;SDS011;40529;52.172;10.548;2023-04-10T08:23:10;21.55;;;14.73;;
53062;SDS011;40529;52.172;10.548;2023-04-10T08:25:36;21.33;;;14.43;;
53062;SDS011;40529;52.172;10.548;2023-04-10T08:28:02;24.67;;;16.13;;
53062;SDS011;40529;52.172;10.548;2023-04-10T08:30:29;20.05;;;14.48;;
53062;SDS011;40529;52.172;10.548;2023-04-10T08:32:55;23.17;;;15.75;;
53062;SDS011;40529;52.172;10.548;2023-04-10T08:35:21;23.85;;;16.80;;
53062;SDS011;40529;52.172;10.548;2023-04-10T08:37:47;23.27;;;16.20;;
53062;SDS011;40529;52.172;10.548;2023-04-10T08:40:13;22.13;;;15.77;;
53062;SDS011;40529;52.172;10.548;2023-04-10T08:42:39;23.88;;;15.85;;
53062;SDS011;40529;52.172;10.548;2023-04-10T08:45:06;21.23;;;14.63;;
53062;SDS011;40529;52.172;10.548;2023-04-10T08:47:34;21.83;;;15.27;;
53062;SDS011;40529;52.172;10.548;2023-04-10T08:50:04;20.70;;;14.38;;
53062;SDS011;40529;52.172;10.548;2023-04-10T08:52:31;23.00;;;14.40;;
53062;SDS011;40529;52.172;10.548;2023-04-10T08:55:01;16.50;;;10.57;;
53062;SDS011;40529;52.172;10.548;2023-04-10T08:57:30;21.13;;;15.40;;
53062;SDS011;40529;52.172;10.548;2023-04-10T08:59:56;21.83;;;14.57;;
53062;SDS011;40529;52.172;10.548;2023-04-10T09:02:23;21.52;;;15.00;;
53062;SDS011;40529;52.172;10.548;2023-04-10T09:04:49;19.80;;;14.50;;
53062;SDS011;40529;52.172;10.548;2023-04-10T09:07:16;21.58;;;14.88;;
53062;SDS011;40529;52.172;10.548;2023-04-10T09:09:43;19.35;;;14.30;;
53062;SDS011;40529;52.172;10.548;2023-04-10T09:12:09;21.45;;;14.60;;
53062;SDS011;40529;52.172;10.548;2023-04-10T09:14:35;20.05;;;14.27;;
53062;SDS011;40529;52.172;10.548;2023-04-10T09:17:21;20.58;;;14.60;;
53062;SDS011;40529;52.172;10.548;2023-04-10T09:22:13;20.08;;;14.52;;
53062;SDS011;40529;52.172;10.548;2023-04-10T09:24:44;22.20;;;14.60;;
53062;SDS011;40529;52.172;10.548;2023-04-10T09:27:10;18.15;;;13.32;;
53062;SDS011;40529;52.172;10.548;2023-04-10T09:29:51;20.63;;;13.80;;
53062;SDS011;40529;52.172;10.548;2023-04-10T09:32:37;20.27;;;14.10;;
53062;SDS011;40529;52.172;10.548;2023-04-10T09:35:03;19.15;;;13.88;;
53062;SDS011;40529;52.172;10.548;2023-04-10T09:37:33;21.80;;;14.35;;
53062;SDS011;40529;52.172;10.548;2023-04-10T09:39:59;20.77;;;14.35;;
53062;SDS011;40529;52.172;10.548;2023-04-10T09:42:33;19.77;;;14.05;;
53062;SDS011;40529;52.172;10.548;2023-04-10T09:44:59;20.00;;;14.32;;
53062;SDS011;40529;52.172;10.548;2023-04-10T09:47:26;20.25;;;14.52;;
53062;SDS011;40529;52.172;10.548;2023-04-10T09:49:55;18.33;;;13.82;;
53062;SDS011;40529;52.172;10.548;2023-04-10T09:52:29;17.77;;;13.95;;
53062;SDS011;40529;52.172;10.548;2023-04-10T09:57:22;17.15;;;13.32;;
53062;SDS011;40529;52.172;10.548;2023-04-10T09:59:49;17.08;;;13.10;;
53062;SDS011;40529;52.172;10.548;2023-04-10T10:02:16;17.73;;;13.38;;
53062;SDS011;40529;52.172;10.548;2023-04-10T10:04:43;18.92;;;13.10;;
53062;SDS011;40529;52.172;10.548;2023-04-10T10:07:10;17.20;;;12.25;;
53062;SDS011;40529;52.172;10.548;2023-04-10T10:09:36;15.98;;;12.20;;
53062;SDS011;40529;52.172;10.548;2023-04-10T10:12:03;15.07;;;11.65;;
53062;SDS011;40529;52.172;10.548;2023-04-10T10:14:30;16.48;;;11.38;;
53062;SDS011;40529;52.172;10.548;2023-04-10T10:16:58;14.68;;;10.70;;
53062;SDS011;40529;52.172;10.548;2023-04-10T10:19:36;13.77;;;10.65;;
53062;SDS011;40529;52.172;10.548;2023-04-10T10:22:05;13.18;;;9.68;;
53062;SDS011;40529;52.172;10.548;2023-04-10T10:24:33;10.20;;;7.57;;
53062;SDS011;40529;52.172;10.548;2023-04-10T10:27:01;9.60;;;6.70;;
53062;SDS011;40529;52.172;10.548;2023-04-10T10:29:27;8.52;;;6.85;;
53062;SDS011;40529;52.172;10.548;2023-04-10T10:31:58;11.27;;;8.77;;
53062;SDS011;40529;52.172;10.548;2023-04-10T10:34:27;9.55;;;7.63;;
53062;SDS011;40529;52.172;10.548;2023-04-10T10:36:53;10.55;;;8.07;;
53062;SDS011;40529;52.172;10.548;2023-04-10T10:42:08;10.93;;;8.63;;
53062;SDS011;40529;52.172;10.548;2023-04-10T10:44:51;13.10;;;8.95;;
53062;SDS011;40529;52.172;10.548;2023-04-10T10:47:26;10.93;;;8.73;;
53062;SDS011;40529;52.172;10.548;2023-04-10T10:52:38;11.85;;;8.52;;
53062;SDS011;40529;52.172;10.548;2023-04-10T10:57:53;12.40;;;9.00;;
53062;SDS011;40529;52.172;10.548;2023-04-10T11:02:48;12.15;;;8.93;;
53062;SDS011;40529;52.172;10.548;2023-04-10T11:08:16;7.70;;;5.78;;
53062;SDS011;40529;52.172;10.548;2023-04-10T11:11:01;7.70;;;5.70;;
53062;SDS011;40529;52.172;10.548;2023-04-10T11:13:33;7.47;;;5.47;;
53062;SDS011;40529;52.172;10.548;2023-04-10T11:16:00;5.53;;;4.13;;
53062;SDS011;40529;52.172;10.548;2023-04-10T11:21:15;7.90;;;5.28;;
53062;SDS011;40529;52.172;10.548;2023-04-10T11:29:05;6.97;;;5.60;;
53062;SDS011;40529;52.172;10.548;2023-04-10T11:31:32;6.60;;;4.97;;
53062;SDS011;40529;52.172;10.548;2023-04-10T11:36:24;6.13;;;4.75;;
53062;SDS011;40529;52.172;10.548;2023-04-10T11:41:30;7.95;;;5.30;;
53062;SDS011;40529;52.172;10.548;2023-04-10T11:43:57;5.93;;;4.90;;
53062;SDS011;40529;52.172;10.548;2023-04-10T11:46:23;6.35;;;4.60;;
53062;SDS011;40529;52.172;10.548;2023-04-10T11:48:57;5.05;;;4.20;;
53062;SDS011;40529;52.172;10.548;2023-04-10T11:51:23;5.75;;;4.70;;
53062;SDS011;40529;52.172;10.548;2023-04-10T11:54:02;5.25;;;4.53;;
53062;SDS011;40529;52.172;10.548;2023-04-10T11:56:28;6.10;;;4.90;;
53062;SDS011;40529;52.172;10.548;2023-04-10T11:58:54;4.97;;;4.40;;
53062;SDS011;40529;52.172;10.548;2023-04-10T12:01:21;5.90;;;4.28;;
53062;SDS011;40529;52.172;10.548;2023-04-10T12:03:47;5.65;;;4.57;;
53062;SDS011;40529;52.172;10.548;2023-04-10T12:06:13;5.25;;;4.32;;
53062;SDS011;40529;52.172;10.548;2023-04-10T12:08:43;6.43;;;4.60;;
53062;SDS011;40529;52.172;10.548;2023-04-10T12:11:10;5.97;;;4.50;;
53062;SDS011;40529;52.172;10.548;2023-04-10T12:13:37;5.93;;;4.75;;
53062;SDS011;40529;52.172;10.548;2023-04-10T12:16:05;7.13;;;4.57;;
53062;SDS011;40529;52.172;10.548;2023-04-10T12:18:31;6.25;;;4.38;;
53062;SDS011;40529;52.172;10.548;2023-04-10T12:20:57;6.45;;;4.63;;
53062;SDS011;40529;52.172;10.548;2023-04-10T12:23:24;5.88;;;4.50;;
53062;SDS011;40529;52.172;10.548;2023-04-10T12:25:51;6.72;;;4.15;;
53062;SDS011;40529;52.172;10.548;2023-04-10T12:28:18;8.20;;;4.43;;
53062;SDS011;40529;52.172;10.548;2023-04-10T12:30:48;5.63;;;4.13;;
53062;SDS011;40529;52.172;10.548;2023-04-10T12:33:23;5.07;;;3.45;;
53062;SDS011;40529;52.172;10.548;2023-04-10T12:35:49;6.38;;;4.13;;
53062;SDS011;40529;52.172;10.548;2023-04-10T12:38:37;5.28;;;4.00;;
53062;SDS011;40529;52.172;10.548;2023-04-10T12:41:02;6.53;;;4.68;;
53062;SDS011;40529;52.172;10.548;2023-04-10T12:43:29;6.50;;;4.30;;
53062;SDS011;40529;52.172;10.548;2023-04-10T12:45:56;5.57;;;4.00;;
53062;SDS011;40529;52.172;10.548;2023-04-10T12:48:22;3.90;;;3.40;;
53062;SDS011;40529;52.172;10.548;2023-04-10T12:50:48;4.60;;;3.30;;
53062;SDS011;40529;52.172;10.548;2023-04-10T12:53:14;4.03;;;3.30;;
53062;SDS011;40529;52.172;10.548;2023-04-10T12:55:40;5.50;;;3.75;;
53062;SDS011;40529;52.172;10.548;2023-04-10T12:58:16;5.22;;;3.90;;
53062;SDS011;40529;52.172;10.548;2023-04-10T13:00:43;3.70;;;3.30;;
53062;SDS011;40529;52.172;10.548;2023-04-10T13:03:10;7.93;;;3.88;;
53062;SDS011;40529;52.172;10.548;2023-04-10T13:05:36;4.15;;;3.28;;
53062;SDS011;40529;52.172;10.548;2023-04-10T13:08:02;5.18;;;4.40;;
53062;SDS011;40529;52.172;10.548;2023-04-10T13:10:28;5.75;;;4.43;;
53062;SDS011;40529;52.172;10.548;2023-04-10T13:12:54;5.75;;;4.60;;
53062;SDS011;40529;52.172;10.548;2023-04-10T13:15:20;6.20;;;4.70;;
53062;SDS011;40529;52.172;10.548;2023-04-10T13:17:46;5.20;;;4.50;;
53062;SDS011;40529;52.172;10.548;2023-04-10T13:20:12;6.00;;;4.20;;
53062;SDS011;40529;52.172;10.548;2023-04-10T13:22:38;5.55;;;4.40;;
53062;SDS011;40529;52.172;10.548;2023-04-10T13:25:05;5.05;;;4.35;;
53062;SDS011;40529;52.172;10.548;2023-04-10T13:27:31;5.72;;;4.57;;
53062;SDS011;40529;52.172;10.548;2023-04-10T13:29:57;6.07;;;4.70;;
53062;SDS011;40529;52.172;10.548;2023-04-10T13:32:23;7.20;;;4.70;;
53062;SDS011;40529;52.172;10.548;2023-04-10T13:34:49;6.07;;;4.55;;
53062;SDS011;40529;52.172;10.548;2023-04-10T13:37:15;6.32;;;4.90;;
53062;SDS011;40529;52.172;10.548;2023-04-10T13:39:41;5.68;;;4.70;;
53062;SDS011;40529;52.172;10.548;2023-04-10T13:42:07;6.63;;;4.80;;
53062;SDS011;40529;52.172;10.548;2023-04-10T13:44:33;7.20;;;5.18;;
53062;SDS011;40529;52.172;10.548;2023-04-10T13:46:59;7.35;;;5.43;;
53062;SDS011;40529;52.172;10.548;2023-04-10T13:49:25;6.05;;;4.65;;
53062;SDS011;40529;52.172;10.548;2023-04-10T13:51:54;6.55;;;4.70;;
53062;SDS011;40529;52.172;10.548;2023-04-10T13:54:21;6.72;;;4.70;;
53062;SDS011;40529;52.172;10.548;2023-04-10T13:56:47;8.95;;;4.90;;
53062;SDS011;40529;52.172;10.548;2023-04-10T13:59:14;6.18;;;4.50;;
53062;SDS011;40529;52.172;10.548;2023-04-10T14:01:40;5.10;;;4.07;;
53062;SDS011;40529;52.172;10.548;2023-04-10T14:04:06;4.63;;;3.85;;
53062;SDS011;40529;52.172;10.548;2023-04-10T14:06:33;5.13;;;3.80;;
53062;SDS011;40529;52.172;10.548;2023-04-10T14:08:59;3.90;;;3.33;;
53062;SDS011;40529;52.172;10.548;2023-04-10T14:11:25;4.38;;;3.45;;
53062;SDS011;40529;52.172;10.548;2023-04-10T14:13:51;4.10;;;3.42;;
53062;SDS011;40529;52.172;10.548;2023-04-10T14:16:17;4.15;;;3.70;;
53062;SDS011;40529;52.172;10.548;2023-04-10T14:18:43;4.95;;;3.17;;
53062;SDS011;40529;52.172;10.548;2023-04-10T14:21:09;4.60;;;3.70;;
53062;SDS011;40529;52.172;10.548;2023-04-10T14:23:35;7.32;;;3.42;;
53062;SDS011;40529;52.172;10.548;2023-04-10T14:26:03;4.53;;;3.65;;
53062;SDS011;40529;52.172;10.548;2023-04-10T14:28:30;4.07;;;3.30;;
53062;SDS011;40529;52.172;10.548;2023-04-10T14:30:56;4.15;;;3.33;;
53062;SDS011;40529;52.172;10.548;2023-04-10T14:33:22;5.95;;;3.00;;
53062;SDS011;40529;52.172;10.548;2023-04-10T14:35:48;3.75;;;3.17;;
53062;SDS011;40529;52.172;10.548;2023-04-10T14:38:14;4.45;;;3.17;;
53062;SDS011;40529;52.172;10.548;2023-04-10T14:40:40;5.10;;;3.45;;
53062;SDS011;40529;52.172;10.548;2023-04-10T14:43:06;4.97;;;3.60;;
53062;SDS011;40529;52.172;10.548;2023-04-10T14:45:33;4.53;;;3.50;;
53062;SDS011;40529;52.172;10.548;2023-04-10T14:47:59;5.22;;;3.20;;
53062;SDS011;40529;52.172;10.548;2023-04-10T14:50:26;4.95;;;3.90;;
53062;SDS011;40529;52.172;10.548;2023-04-10T14:52:53;4.50;;;3.75;;
53062;SDS011;40529;52.172;10.548;2023-04-10T14:55:19;6.18;;;3.90;;
53062;SDS011;40529;52.172;10.548;2023-04-10T14:57:45;5.57;;;3.55;;
53062;SDS011;40529;52.172;10.548;2023-04-10T15:00:11;3.97;;;3.58;;